Pagina principale
METAR-TAF:

METAR-TAF

Aeroporti :

Aeroporto Internazionale di Halifax

Halifax, Nuova Scozia, Canada

latitudine: 44-53N, longitudine: 063-30W, altezza: 145 m

Osservazione

Il bollettino è stato emesso 1 ora e 10 minuti fa, alle 02:00 UTC
Vento 8 kt da sud-ovest
Temperature 0°C
Umidità 74%
Pressione 1020 hPa
Visibilità: 24.1 km
Nubi sparse ad un'altezza di 6000 ft

METAR: CYHZ 230200Z 23008KT 15SM SCT060 00/M04 A3012 RMK SC3 SLP207

Ora: 00:10 (03:10 UTC)

Previsione

Il bollettino è stato emesso 32 minuti fa, alle 02:38 UTC
Previsione valida dal 23 alle 03 UTC al 23 alle 24 UTC
Vento 10 kt da ovest/sud-ovest
Visibilità: 10 km
Poco nuvoloso ad un'altezza di 5000 ft
Evoluzione graduale
dal 23 alle 20 UTC al 23 alle 22 UTC
Vento 10 kt da sud-est

TAF: CYHZ 230238Z 2303/2324 25010KT P6SM FEW050 BECMG 2320/2322 13010KT RMK NXT FCST BY 230600Z

Osservazioni e previsioni meteorologiche di più di 4000 aeroporti (messaggi METAR e TAF).

Le stazioni disponibili sono rappresentate dai dischi gialli e rossi sulla carta.

Puntare il mouse per vedere il nome della stazione.

Clicca sopra per visualizzare le osservazioni e previsioni meteorologiche.

Per cambiare la mappa : fare clic sui pulsanti verdi con una croce nera per ingrandire, il pulsante verde con un trattino per diminuire, o sulla freccia verde per le mappe adiacenti.


METAR-TAF: